Time;durP1;ratioP1;P1;durP2;ratioP2;P2;SDS_P1;SDS_P2;PMS_P1;PMS_P2;Temp;Humidity;BMP_temperature;BMP_pressure;BME280_temperature;BME280_humidity;BME280_pressure;Samples;Min_cycle;Max_cycle;Signal;HPM_P1;HPM_P2
2021/01/01 00:01:54;;;;;;;32.97;23.08;;;17.60;99.90;;;;;;5055229;28;20029;-37
2021/01/01 00:04:19;;;;;;;28.10;21.42;;;17.50;99.90;;;;;;5038975;28;20387;-37
2021/01/01 00:06:49;;;;;;;34.30;22.33;;;17.50;99.90;;;;;;5046171;28;20147;-37
2021/01/01 00:09:18;;;;;;;30.13;21.15;;;17.50;99.90;;;;;;5046209;28;20434;-37
2021/01/01 00:11:49;;;;;;;27.25;20.58;;;17.50;99.90;;;;;;5046387;28;20036;-40
2021/01/01 00:14:15;;;;;;;25.23;19.08;;;17.40;99.90;;;;;;5045993;28;20036;-40
2021/01/01 00:16:41;;;;;;;26.45;18.85;;;17.40;99.90;;;;;;5038674;28;20044;-40
2021/01/01 00:19:07;;;;;;;23.42;16.90;;;17.50;99.90;;;;;;5033745;28;20037;-41
2021/01/01 00:21:33;;;;;;;25.00;17.35;;;17.40;99.90;;;;;;5046027;28;20021;-38
2021/01/01 00:23:59;;;;;;;26.20;17.73;;;17.40;99.90;;;;;;5046288;28;20025;-39
2021/01/01 00:26:25;;;;;;;24.10;16.90;;;17.40;99.90;;;;;;5038946;28;20045;-38
2021/01/01 00:28:51;;;;;;;28.83;17.58;;;17.40;99.90;;;;;;5045765;28;20032;-39
2021/01/01 00:31:19;;;;;;;21.27;16.38;;;17.40;99.90;;;;;;5048504;28;20021;-37
2021/01/01 00:33:45;;;;;;;26.27;15.95;;;17.40;99.90;;;;;;5052224;28;20104;-37
2021/01/01 00:36:14;;;;;;;21.63;16.17;;;17.40;99.90;;;;;;5052095;28;20404;-37
2021/01/01 00:38:50;;;;;;;19.48;15.20;;;17.40;99.90;;;;;;5048831;28;20017;-37
2021/01/01 00:41:34;;;;;;;25.25;16.73;;;17.40;99.90;;;;;;5048531;28;20029;-39
2021/01/01 00:44:00;;;;;;;36.83;27.75;;;17.40;99.90;;;;;;5055540;28;20487;-40
2021/01/01 00:46:28;;;;;;;37.95;28.95;;;17.30;99.90;;;;;;5052892;28;20021;-38
2021/01/01 00:48:57;;;;;;;41.50;31.45;;;17.30;99.90;;;;;;5049793;28;20475;-38
2021/01/01 00:51:30;;;;;;;37.35;30.58;;;17.30;99.90;;;;;;5052889;28;20025;-38
2021/01/01 00:53:57;;;;;;;35.75;28.33;;;17.30;99.90;;;;;;5058144;28;20343;-38
2021/01/01 00:56:25;;;;;;;35.97;29.23;;;17.20;99.90;;;;;;5062342;28;20021;-38
2021/01/01 00:58:51;;;;;;;37.22;28.50;;;17.20;99.90;;;;;;5045761;28;20037;-37
2021/01/01 01:01:19;;;;;;;38.30;26.17;;;17.30;99.90;;;;;;5050083;28;20025;-37
2021/01/01 01:03:44;;;;;;;34.67;27.30;;;17.30;99.90;;;;;;5052708;28;20079;-37
2021/01/01 01:06:11;;;;;;;31.40;24.33;;;17.20;99.90;;;;;;5051635;28;20038;-37
2021/01/01 01:08:37;;;;;;;34.25;25.75;;;17.20;99.90;;;;;;5049556;28;20017;-37
2021/01/01 01:11:03;;;;;;;26.83;22.05;;;17.20;99.90;;;;;;5052015;28;20479;-37
2021/01/01 01:13:29;;;;;;;28.85;22.83;;;17.20;99.90;;;;;;5049475;28;20035;-37
2021/01/01 01:15:54;;;;;;;27.42;21.70;;;17.30;99.90;;;;;;5054380;28;20021;-37
2021/01/01 01:18:20;;;;;;;30.05;22.52;;;17.20;99.90;;;;;;5051241;28;20025;-37
2021/01/01 01:20:46;;;;;;;28.60;21.17;;;17.20;99.90;;;;;;5050863;28;20028;-37
2021/01/01 01:23:12;;;;;;;26.48;20.73;;;17.20;99.90;;;;;;5048933;28;20112;-37
2021/01/01 01:25:38;;;;;;;25.00;19.95;;;17.20;99.90;;;;;;5054390;28;20517;-37
2021/01/01 01:28:04;;;;;;;25.80;20.02;;;17.10;99.90;;;;;;5045295;28;20029;-37
2021/01/01 01:30:30;;;;;;;27.13;18.65;;;17.10;99.90;;;;;;5040960;28;20025;-37
2021/01/01 01:32:55;;;;;;;22.35;18.70;;;17.10;99.90;;;;;;5041134;28;20017;-37
2021/01/01 01:35:22;;;;;;;22.85;16.73;;;17.10;99.90;;;;;;5046284;28;20041;-37
2021/01/01 01:37:48;;;;;;;25.42;20.42;;;17.10;99.90;;;;;;5042204;28;20227;-37
2021/01/01 01:40:13;;;;;;;26.45;21.35;;;17.10;99.90;;;;;;5048797;28;20542;-37
2021/01/01 01:42:39;;;;;;;25.80;20.42;;;17.10;99.90;;;;;;5049726;28;20029;-37
2021/01/01 01:45:07;;;;;;;25.10;20.48;;;17.00;99.90;;;;;;5038571;28;20030;-37
2021/01/01 01:47:33;;;;;;;;;;;17.00;99.90;;;;;;5042668;28;20039;-36
2021/01/01 01:50:00;;;;;;;24.42;19.02;;;17.00;99.90;;;;;;5045767;28;19908;-37
2021/01/01 01:52:27;;;;;;;25.83;18.42;;;17.00;99.90;;;;;;5051153;28;20478;-37
2021/01/01 01:54:54;;;;;;;25.40;18.75;;;17.00;99.90;;;;;;5053359;28;20025;-36
2021/01/01 01:57:24;;;;;;;21.60;17.70;;;17.00;99.90;;;;;;5048252;28;20032;-36
2021/01/01 01:59:55;;;;;;;25.55;18.27;;;16.90;99.90;;;;;;5049107;28;20024;-36
2021/01/01 02:02:24;;;;;;;24.13;16.73;;;16.90;99.90;;;;;;5052935;28;20021;-35
2021/01/01 02:04:50;;;;;;;19.58;16.02;;;16.90;99.90;;;;;;5046054;28;20037;-35
2021/01/01 02:07:16;;;;;;;21.15;15.70;;;16.90;99.90;;;;;;5053154;28;20021;-36
2021/01/01 02:09:44;;;;;;;19.10;15.48;;;16.90;99.90;;;;;;5050706;28;20029;-36
2021/01/01 02:12:12;;;;;;;14.38;11.98;;;16.80;99.90;;;;;;5048892;28;20036;-35
2021/01/01 02:14:39;;;;;;;15.18;11.52;;;16.80;99.90;;;;;;5049972;28;20025;-36
2021/01/01 02:17:04;;;;;;;15.85;11.50;;;16.80;99.90;;;;;;5052700;28;20351;-34
2021/01/01 02:19:30;;;;;;;15.20;11.48;;;16.70;99.90;;;;;;5049498;28;20111;-35
2021/01/01 02:22:00;;;;;;;16.75;12.82;;;16.70;99.90;;;;;;5047067;28;20021;-35
2021/01/01 02:24:26;;;;;;;19.30;12.05;;;16.70;99.90;;;;;;5049953;28;20025;-35
2021/01/01 02:26:52;;;;;;;16.67;10.55;;;16.70;99.90;;;;;;5050968;28;20036;-35
2021/01/01 02:29:18;;;;;;;13.25;9.02;;;16.70;99.90;;;;;;5047730;28;20022;-35
2021/01/01 02:31:44;;;;;;;12.77;10.20;;;16.70;99.90;;;;;;5039428;28;20036;-35
2021/01/01 02:34:10;;;;;;;12.20;9.38;;;16.70;99.90;;;;;;5042610;28;20037;-34
2021/01/01 02:36:36;;;;;;;11.50;9.48;;;16.60;99.90;;;;;;5043545;28;20383;-35
2021/01/01 02:39:02;;;;;;;14.30;10.18;;;16.60;99.90;;;;;;5044211;28;20490;-34
2021/01/01 02:41:28;;;;;;;11.93;9.15;;;16.60;99.90;;;;;;5048379;28;20025;-35
2021/01/01 02:43:54;;;;;;;14.95;10.32;;;16.60;99.90;;;;;;5046969;28;20028;-35
2021/01/01 02:46:20;;;;;;;14.43;9.30;;;16.60;99.90;;;;;;5043405;28;20029;-35
2021/01/01 02:48:46;;;;;;;14.48;9.25;;;16.60;99.90;;;;;;5044081;28;20108;-36
2021/01/01 02:51:11;;;;;;;11.30;9.55;;;16.70;99.90;;;;;;5043164;28;20022;-36
2021/01/01 02:53:37;;;;;;;11.98;9.02;;;16.70;99.90;;;;;;5040854;28;20479;-36
2021/01/01 02:56:04;;;;;;;13.50;9.30;;;16.60;99.90;;;;;;5042703;28;20029;-36
2021/01/01 02:58:30;;;;;;;13.55;8.80;;;16.60;99.90;;;;;;5046173;28;20074;-36
2021/01/01 03:00:55;;;;;;;10.23;8.38;;;16.60;99.90;;;;;;5037011;28;20057;-36
2021/01/01 03:03:21;;;;;;;10.43;8.38;;;16.60;99.90;;;;;;5048193;28;20025;-36
2021/01/01 03:05:47;;;;;;;11.52;7.57;;;16.60;99.90;;;;;;5050538;28;20029;-36
2021/01/01 03:08:13;;;;;;;8.88;7.97;;;16.60;99.90;;;;;;5045390;28;20475;-36
2021/01/01 03:10:39;;;;;;;10.52;7.95;;;16.60;99.90;;;;;;5044415;28;20033;-34
2021/01/01 03:13:05;;;;;;;8.98;7.07;;;16.60;99.90;;;;;;5042163;28;20383;-36
2021/01/01 03:15:31;;;;;;;8.93;7.28;;;16.50;99.90;;;;;;5044377;28;20032;-36
2021/01/01 03:17:57;;;;;;;9.38;7.50;;;16.50;99.90;;;;;;5050438;28;20082;-36
2021/01/01 03:20:23;;;;;;;8.50;6.28;;;16.50;99.90;;;;;;5046646;28;20029;-36
2021/01/01 03:22:49;;;;;;;10.43;6.95;;;16.50;99.90;;;;;;5041954;28;20449;-36
2021/01/01 03:25:15;;;;;;;10.00;7.03;;;16.50;99.90;;;;;;5039257;28;20159;-36
2021/01/01 03:27:41;;;;;;;7.53;6.22;;;16.50;99.90;;;;;;5047680;28;20033;-36
2021/01/01 03:30:09;;;;;;;9.15;6.00;;;16.50;99.90;;;;;;5038848;28;20030;-36
2021/01/01 03:32:35;;;;;;;;;;;16.50;99.90;;;;;;5039890;28;20041;-36
2021/01/01 03:35:00;;;;;;;5.97;4.97;;;16.50;99.90;;;;;;5050940;28;20111;-35
2021/01/01 03:37:26;;;;;;;6.00;4.65;;;16.50;99.90;;;;;;5048160;28;20025;-36
2021/01/01 03:39:54;;;;;;;6.68;5.13;;;16.50;99.90;;;;;;5040196;28;20049;-36
2021/01/01 03:42:20;;;;;;;4.43;3.20;;;16.50;99.90;;;;;;5044199;28;20028;-36
2021/01/01 03:44:46;;;;;;;5.28;4.50;;;16.50;99.90;;;;;;5050336;28;20090;-36
2021/01/01 03:47:12;;;;;;;7.88;4.90;;;16.40;99.90;;;;;;5046448;28;20479;-36
2021/01/01 03:49:37;;;;;;;5.63;4.47;;;16.40;99.90;;;;;;5044444;28;20029;-36
2021/01/01 03:52:03;;;;;;;5.53;4.30;;;16.40;99.90;;;;;;5038047;28;20036;-36
2021/01/01 03:54:29;;;;;;;4.85;4.00;;;16.40;99.90;;;;;;5044124;28;20022;-36
2021/01/01 03:56:55;;;;;;;5.43;3.55;;;16.40;99.90;;;;;;5048330;28;20031;-36
2021/01/01 03:59:21;;;;;;;3.65;3.22;;;16.40;99.90;;;;;;5041159;28;20029;-36
2021/01/01 04:01:47;;;;;;;5.13;3.72;;;16.40;99.90;;;;;;5042888;28;20017;-36
2021/01/01 04:04:13;;;;;;;4.63;3.45;;;16.30;99.90;;;;;;5050300;28;20026;-36
2021/01/01 04:06:38;;;;;;;4.25;3.13;;;16.30;99.90;;;;;;5052418;28;20028;-36
2021/01/01 04:09:04;;;;;;;4.80;3.10;;;16.30;99.90;;;;;;5045608;28;20403;-36
2021/01/01 04:11:35;;;;;;;5.03;3.67;;;16.30;99.90;;;;;;5048409;28;20590;-36
2021/01/01 04:14:01;;;;;;;4.63;3.42;;;16.30;99.90;;;;;;5043227;28;20021;-35
2021/01/01 04:16:27;;;;;;;5.18;3.35;;;16.30;99.90;;;;;;5050063;28;20493;-36
2021/01/01 04:18:53;;;;;;;6.32;3.40;;;16.30;99.90;;;;;;5049719;28;20515;-36
2021/01/01 04:21:19;;;;;;;4.40;3.35;;;16.30;99.90;;;;;;5042084;28;20148;-36
2021/01/01 04:23:45;;;;;;;4.32;3.05;;;16.30;99.90;;;;;;5042144;28;20025;-36
2021/01/01 04:26:13;;;;;;;5.20;2.80;;;16.20;99.90;;;;;;5050991;28;20076;-36
2021/01/01 04:28:38;;;;;;;;;;;16.30;99.90;;;;;;5046177;28;20025;-36
2021/01/01 04:31:04;;;;;;;4.57;2.53;;;16.20;99.90;;;;;;5039090;28;19935;-36
2021/01/01 04:33:30;;;;;;;4.32;2.50;;;16.30;99.90;;;;;;5046780;28;20121;-35
2021/01/01 04:35:56;;;;;;;2.97;2.40;;;16.30;99.90;;;;;;5040120;28;20025;-36
2021/01/01 04:38:22;;;;;;;6.78;2.70;;;16.20;99.90;;;;;;5051936;28;20036;-36
2021/01/01 04:40:48;;;;;;;4.43;1.90;;;16.20;99.90;;;;;;5045027;28;20375;-36
2021/01/01 04:43:14;;;;;;;5.47;2.17;;;16.20;99.90;;;;;;5047187;28;20064;-36
2021/01/01 04:45:39;;;;;;;3.20;1.80;;;16.20;99.90;;;;;;5042163;28;20056;-36
2021/01/01 04:48:06;;;;;;;2.72;1.50;;;16.20;99.90;;;;;;5052531;28;20471;-35
2021/01/01 04:50:32;;;;;;;2.53;1.98;;;16.20;99.90;;;;;;5046354;28;20025;-36
2021/01/01 04:53:01;;;;;;;3.33;1.88;;;16.20;99.90;;;;;;5043410;28;20517;-36
2021/01/01 04:55:30;;;;;;;2.72;2.53;;;16.20;99.90;;;;;;5039882;28;20025;-36
2021/01/01 04:57:57;;;;;;;1.85;1.60;;;16.20;99.90;;;;;;5050391;28;20057;-36
2021/01/01 05:00:23;;;;;;;4.90;1.63;;;16.20;99.90;;;;;;5045240;28;20017;-36
2021/01/01 05:02:49;;;;;;;8.30;1.67;;;16.10;99.90;;;;;;5043719;28;20105;-36
2021/01/01 05:05:15;;;;;;;3.15;1.63;;;16.10;99.90;;;;;;5039949;28;20481;-36
2021/01/01 05:07:40;;;;;;;1.73;1.38;;;16.10;99.90;;;;;;5047420;28;20043;-36
2021/01/01 05:10:08;;;;;;;3.15;2.25;;;16.10;99.90;;;;;;5045104;28;20052;-35
2021/01/01 05:12:34;;;;;;;3.33;1.95;;;16.10;99.90;;;;;;5036951;28;20151;-36
2021/01/01 05:15:00;;;;;;;2.50;1.77;;;16.10;99.90;;;;;;5039206;28;20471;-36
2021/01/01 05:17:33;;;;;;;3.55;1.63;;;16.10;99.90;;;;;;5049460;28;20032;-36
2021/01/01 05:20:08;;;;;;;2.50;1.40;;;16.10;99.90;;;;;;5046002;28;20028;-35
2021/01/01 05:22:35;;;;;;;2.53;1.65;;;16.10;99.90;;;;;;5040537;28;20029;-36
2021/01/01 05:25:14;;;;;;;2.13;1.23;;;16.10;99.90;;;;;;5042136;28;20056;-36
2021/01/01 05:27:46;;;;;;;2.60;1.50;;;16.10;99.90;;;;;;5043158;28;20044;-36
2021/01/01 05:30:15;;;;;;;2.58;1.40;;;16.10;99.90;;;;;;5037433;28;20069;-36
2021/01/01 05:32:50;;;;;;;4.78;1.70;;;16.10;99.90;;;;;;5047208;28;20108;-36
2021/01/01 05:35:29;;;;;;;2.35;1.85;;;16.10;99.90;;;;;;5039051;28;20057;-36
2021/01/01 05:37:55;;;;;;;2.17;1.40;;;16.00;99.90;;;;;;5047241;28;20114;-36
2021/01/01 05:40:31;;;;;;;4.75;1.52;;;16.10;99.90;;;;;;5044803;28;20475;-36
2021/01/01 05:43:17;;;;;;;2.97;1.27;;;16.10;99.90;;;;;;5047236;28;20024;-36
2021/01/01 05:45:43;;;;;;;3.05;1.30;;;16.10;99.90;;;;;;5037234;28;20113;-36
2021/01/01 05:48:08;;;;;;;2.55;1.50;;;16.10;99.90;;;;;;5052711;28;20130;-36
2021/01/01 05:50:35;;;;;;;2.47;1.38;;;16.10;99.90;;;;;;5045379;28;20098;-36
2021/01/01 05:53:10;;;;;;;2.55;1.48;;;16.10;99.90;;;;;;5047094;28;20471;-36
2021/01/01 05:55:36;;;;;;;2.83;1.58;;;16.00;99.90;;;;;;5040158;28;20041;-36
2021/01/01 05:58:02;;;;;;;2.17;1.08;;;16.00;99.90;;;;;;5049922;28;20358;-36
2021/01/01 06:00:31;;;;;;;4.57;1.80;;;16.00;99.90;;;;;;5044536;28;20024;-36
2021/01/01 06:03:01;;;;;;;2.13;0.98;;;16.00;99.90;;;;;;5044493;28;20017;-36
2021/01/01 06:05:28;;;;;;;2.15;1.08;;;16.00;99.90;;;;;;5037853;28;20124;-36
2021/01/01 06:07:57;;;;;;;2.43;1.37;;;16.00;99.90;;;;;;5043435;28;20025;-36
2021/01/01 06:10:26;;;;;;;2.25;1.00;;;16.00;99.90;;;;;;5043862;28;20029;-36
2021/01/01 06:12:53;;;;;;;2.58;0.90;;;16.00;99.90;;;;;;5046195;28;20075;-36
2021/01/01 06:15:22;;;;;;;3.10;1.23;;;16.00;99.90;;;;;;5046437;28;20112;-37
2021/01/01 06:17:50;;;;;;;8.88;1.52;;;16.00;99.90;;;;;;5047217;28;20100;-36
2021/01/01 06:20:19;;;;;;;3.17;1.10;;;15.90;99.90;;;;;;5041939;28;20060;-36
2021/01/01 06:23:07;;;;;;;3.00;0.75;;;15.90;99.90;;;;;;5044753;28;20671;-36
2021/01/01 06:25:34;;;;;;;3.95;0.85;;;15.90;99.90;;;;;;5051026;28;20044;-36
2021/01/01 06:28:00;;;;;;;5.72;1.13;;;15.90;99.90;;;;;;5043344;28;20086;-36
2021/01/01 06:30:28;;;;;;;2.33;1.00;;;15.90;99.90;;;;;;5043283;28;20064;-37
2021/01/01 06:32:54;;;;;;;3.53;0.80;;;15.90;99.90;;;;;;5047256;28;20025;-37
2021/01/01 06:35:22;;;;;;;2.75;0.80;;;15.90;99.90;;;;;;5038724;28;20041;-36
2021/01/01 06:37:49;;;;;;;4.32;0.93;;;15.90;99.90;;;;;;5053292;28;20344;-36
2021/01/01 06:40:21;;;;;;;1.65;1.00;;;15.90;99.90;;;;;;5040402;28;20065;-36
2021/01/01 06:43:06;;;;;;;8.00;1.23;;;15.90;99.90;;;;;;5044200;28;20043;-37
2021/01/01 06:45:47;;;;;;;2.53;1.17;;;15.90;99.90;;;;;;5042591;28;20420;-37
2021/01/01 06:48:22;;;;;;;1.90;1.08;;;15.90;99.90;;;;;;5047118;28;20033;-36
2021/01/01 06:50:52;;;;;;;4.80;1.05;;;15.90;99.90;;;;;;5039982;28;20021;-36
2021/01/01 06:53:25;;;;;;;1.33;0.70;;;15.90;99.90;;;;;;5041229;28;20017;-36
2021/01/01 06:55:51;;;;;;;3.53;0.93;;;15.90;99.90;;;;;;5043063;28;20059;-36
2021/01/01 06:58:26;;;;;;;3.05;0.98;;;15.90;99.90;;;;;;5043190;28;20479;-36
2021/01/01 07:00:56;;;;;;;1.58;0.80;;;15.80;99.90;;;;;;5040073;28;20029;-36
2021/01/01 07:03:38;;;;;;;2.20;0.82;;;15.90;99.90;;;;;;5049979;28;20029;-37
2021/01/01 07:06:04;;;;;;;1.48;0.88;;;15.90;99.90;;;;;;5045883;28;20028;-37
2021/01/01 07:08:39;;;;;;;2.05;0.77;;;15.80;99.90;;;;;;5046727;28;20025;-37
2021/01/01 07:11:08;;;;;;;2.55;0.93;;;15.90;99.90;;;;;;5042174;28;20076;-37
2021/01/01 07:14:06;;;;;;;3.03;1.10;;;15.90;99.90;;;;;;5047070;28;20044;-36
2021/01/01 07:16:45;;;;;;;3.08;0.85;;;15.90;99.90;;;;;;5028313;28;20059;-37
2021/01/01 07:19:11;;;;;;;4.60;0.80;;;15.90;99.90;;;;;;5030479;28;20038;-37
2021/01/01 07:21:38;;;;;;;3.35;0.90;;;15.90;99.90;;;;;;5028237;28;20052;-36
2021/01/01 07:24:05;;;;;;;3.30;1.02;;;15.90;99.90;;;;;;5029725;28;20057;-37
2021/01/01 07:26:31;;;;;;;3.78;0.90;;;15.90;99.90;;;;;;5028011;28;20124;-37
2021/01/01 07:29:01;;;;;;;7.65;1.25;;;15.90;99.90;;;;;;5030048;28;20201;-37
2021/01/01 07:31:28;;;;;;;2.63;0.90;;;15.90;99.90;;;;;;5025224;28;20450;-37
2021/01/01 07:33:54;;;;;;;4.20;0.85;;;16.00;99.90;;;;;;5034439;28;20038;-37
2021/01/01 07:36:20;;;;;;;3.10;0.88;;;16.00;99.90;;;;;;5030317;28;20049;-37
2021/01/01 07:38:47;;;;;;;3.78;1.05;;;16.00;99.90;;;;;;5034185;28;20511;-37
2021/01/01 07:41:16;;;;;;;1.75;1.15;;;16.00;99.90;;;;;;5028044;28;20041;-36
2021/01/01 07:43:42;;;;;;;2.45;1.13;;;16.00;99.90;;;;;;5017533;28;20037;-38
2021/01/01 07:46:09;;;;;;;6.25;0.90;;;16.00;99.90;;;;;;5028351;28;20037;-37
2021/01/01 07:48:37;;;;;;;5.25;0.80;;;16.00;99.90;;;;;;5034234;28;20038;-38
2021/01/01 07:51:08;;;;;;;1.63;0.70;;;16.10;99.90;;;;;;5016834;28;20415;-37
2021/01/01 07:53:38;;;;;;;2.97;1.20;;;16.10;99.90;;;;;;5034489;28;20471;-37
2021/01/01 07:56:06;;;;;;;3.42;1.35;;;16.10;99.90;;;;;;5051398;28;20471;-37
2021/01/01 07:58:32;;;;;;;1.55;0.80;;;16.20;99.90;;;;;;5054615;28;20025;-37
2021/01/01 08:01:02;;;;;;;4.90;1.00;;;16.20;99.90;;;;;;5051044;28;20032;-37
2021/01/01 08:03:28;;;;;;;5.43;0.80;;;16.20;99.90;;;;;;5045197;28;20018;-37
2021/01/01 08:05:54;;;;;;;2.95;1.08;;;16.20;99.90;;;;;;5050000;28;20036;-37
2021/01/01 08:08:22;;;;;;;5.07;1.08;;;16.20;99.90;;;;;;5052894;28;20474;-37
2021/01/01 08:10:50;;;;;;;5.97;2.17;;;16.20;99.90;;;;;;5049714;28;20894;-37
2021/01/01 08:13:17;;;;;;;3.90;1.50;;;16.20;99.90;;;;;;5043487;28;20037;-36
2021/01/01 08:15:43;;;;;;;6.90;2.23;;;16.10;99.90;;;;;;5052016;28;20033;-37
2021/01/01 08:18:18;;;;;;;5.93;3.10;;;16.10;99.90;;;;;;5048349;28;20096;-37
2021/01/01 08:20:46;;;;;;;7.18;3.97;;;16.20;99.90;;;;;;5048136;28;20086;-37
2021/01/01 08:23:19;;;;;;;9.52;4.38;;;16.10;99.90;;;;;;5045634;28;20024;-37
2021/01/01 08:25:47;;;;;;;11.20;5.65;;;16.10;99.90;;;;;;5051610;28;20041;-37
2021/01/01 08:28:26;;;;;;;10.70;6.70;;;16.10;99.90;;;;;;5047380;28;20051;-37
2021/01/01 08:31:04;;;;;;;7.88;5.78;;;16.10;99.90;;;;;;5053127;28;20053;-37
2021/01/01 08:33:30;;;;;;;;;;;16.10;99.90;;;;;;5048986;28;20113;-37
2021/01/01 08:36:07;;;;;;;11.73;5.60;;;16.20;99.90;;;;;;5046138;28;19940;-37
2021/01/01 08:38:34;;;;;;;7.78;4.63;;;16.20;99.90;;;;;;5041254;28;20049;-37
2021/01/01 08:41:01;;;;;;;6.90;4.00;;;16.30;99.90;;;;;;5038205;28;20018;-37
2021/01/01 08:43:27;;;;;;;8.80;5.38;;;16.40;99.90;;;;;;5049908;28;20031;-37
2021/01/01 08:45:54;;;;;;;7.00;4.72;;;16.40;99.90;;;;;;5051206;28;20107;-37
2021/01/01 08:48:19;;;;;;;10.50;3.90;;;16.30;99.90;;;;;;5049200;28;20032;-37
2021/01/01 08:50:47;;;;;;;7.85;4.75;;;16.40;99.90;;;;;;5047090;28;20252;-36
2021/01/01 08:53:13;;;;;;;6.60;4.30;;;16.50;99.90;;;;;;5051026;28;20029;-37
2021/01/01 08:55:40;;;;;;;10.63;5.97;;;16.50;99.90;;;;;;5046338;28;20037;-37
2021/01/01 08:58:16;;;;;;;17.35;11.35;;;16.50;99.90;;;;;;5045816;28;20491;-35
2021/01/01 09:00:44;;;;;;;16.83;10.52;;;16.50;99.90;;;;;;5041601;28;20030;-35
2021/01/01 09:03:11;;;;;;;14.95;11.82;;;16.60;99.90;;;;;;5035691;28;20022;-35
2021/01/01 09:05:37;;;;;;;17.58;11.27;;;16.60;99.90;;;;;;5049958;28;20383;-35
2021/01/01 09:08:16;;;;;;;17.83;13.13;;;16.60;99.90;;;;;;5045395;28;20529;-35
2021/01/01 09:10:47;;;;;;;13.80;10.68;;;16.60;99.90;;;;;;5044264;28;20025;-35
2021/01/01 09:13:18;;;;;;;14.65;10.27;;;16.60;99.90;;;;;;5043578;28;20025;-37
2021/01/01 09:15:45;;;;;;;13.82;10.80;;;16.60;99.90;;;;;;5045421;28;20121;-35
2021/01/01 09:18:12;;;;;;;14.40;10.95;;;16.70;99.90;;;;;;5045388;28;20091;-35
2021/01/01 09:20:46;;;;;;;19.52;12.90;;;16.70;99.90;;;;;;5051726;28;20071;-35
2021/01/01 09:23:12;;;;;;;13.25;11.13;;;16.70;99.90;;;;;;5049331;28;20060;-35
2021/01/01 09:25:40;;;;;;;15.90;12.05;;;16.70;99.90;;;;;;5054513;28;20045;-36
2021/01/01 09:28:10;;;;;;;17.98;13.13;;;16.80;99.90;;;;;;5046597;28;20100;-38
2021/01/01 09:30:36;;;;;;;26.15;19.70;;;16.70;99.90;;;;;;5037821;28;20037;-36
2021/01/01 09:33:04;;;;;;;25.73;16.52;;;16.70;99.90;;;;;;5040217;28;20025;-36
2021/01/01 09:35:30;;;;;;;24.00;18.20;;;16.70;99.90;;;;;;5051664;28;20021;-36
2021/01/01 09:37:57;;;;;;;27.30;18.27;;;16.70;99.90;;;;;;5052513;28;20029;-36
2021/01/01 09:40:28;;;;;;;24.60;17.73;;;16.70;99.90;;;;;;5049514;28;20074;-36
2021/01/01 09:42:54;;;;;;;19.23;13.85;;;16.70;99.90;;;;;;5047325;28;20040;-36
2021/01/01 09:45:20;;;;;;;28.73;22.17;;;16.70;99.90;;;;;;5043915;28;20025;-36
2021/01/01 09:47:47;;;;;;;46.38;34.03;;;16.70;99.90;;;;;;5049566;28;20497;-36
2021/01/01 09:50:14;;;;;;;49.35;38.35;;;16.70;99.90;;;;;;5042730;28;20017;-36
2021/01/01 09:52:40;;;;;;;55.05;41.40;;;16.80;99.90;;;;;;5043564;28;20017;-36
2021/01/01 09:55:07;;;;;;;50.13;35.58;;;16.80;99.90;;;;;;5050453;28;20033;-36
2021/01/01 09:57:33;;;;;;;45.15;32.33;;;16.80;99.90;;;;;;5047215;28;20031;-36
2021/01/01 09:59:59;;;;;;;38.50;29.35;;;16.90;99.90;;;;;;5046574;28;20378;-36
2021/01/01 10:02:25;;;;;;;44.63;31.70;;;16.90;99.90;;;;;;5051436;28;20025;-36
2021/01/01 10:04:51;;;;;;;37.78;28.27;;;16.90;99.90;;;;;;5044961;28;20048;-36
2021/01/01 10:07:18;;;;;;;43.40;32.20;;;16.90;99.90;;;;;;5046133;28;20017;-36
2021/01/01 10:09:44;;;;;;;33.45;25.30;;;16.90;99.90;;;;;;5048736;28;20013;-36
2021/01/01 10:12:13;;;;;;;37.58;27.23;;;16.90;99.90;;;;;;5038766;28;20064;-36
2021/01/01 10:14:40;;;;;;;32.22;24.00;;;17.00;99.90;;;;;;5045097;28;20036;-36
2021/01/01 10:17:05;;;;;;;34.38;22.83;;;17.00;99.90;;;;;;5042058;28;20152;-37
2021/01/01 10:19:31;;;;;;;26.00;18.08;;;17.00;99.90;;;;;;5052194;28;20056;-37
2021/01/01 10:21:57;;;;;;;26.75;18.67;;;17.00;99.90;;;;;;5048668;28;20017;-36
2021/01/01 10:24:24;;;;;;;22.25;15.82;;;16.90;99.90;;;;;;5040933;28;20030;-33
2021/01/01 10:26:51;;;;;;;8.77;4.70;;;17.00;99.90;;;;;;5039659;28;20041;-33
2021/01/01 10:29:17;;;;;;;11.02;3.45;;;17.20;99.90;;;;;;5050102;28;20074;-34
2021/01/01 10:31:44;;;;;;;14.52;3.15;;;16.90;99.90;;;;;;5051106;28;20040;-43
2021/01/01 10:34:11;;;;;;;3.65;1.70;;;16.80;99.90;;;;;;5040773;28;20106;-43
2021/01/01 10:36:38;;;;;;;4.73;1.47;;;16.70;99.90;;;;;;5038537;28;20112;-44
2021/01/01 10:39:08;;;;;;;7.27;1.93;;;16.60;99.90;;;;;;5044489;28;20285;-43
2021/01/01 10:41:36;;;;;;;14.05;6.10;;;16.50;99.90;;;;;;5041916;28;20741;-43
2021/01/01 10:44:03;;;;;;;13.25;9.27;;;16.70;99.90;;;;;;5047765;28;20037;-44
2021/01/01 10:46:29;;;;;;;9.38;5.82;;;16.70;99.90;;;;;;5042548;28;20395;-43
2021/01/01 10:48:55;;;;;;;31.13;21.67;;;16.70;99.90;;;;;;5046772;28;20033;-43
2021/01/01 10:51:23;;;;;;;13.05;7.28;;;16.70;99.90;;;;;;5046862;28;20025;-33
2021/01/01 10:53:49;;;;;;;13.23;8.38;;;16.70;99.90;;;;;;5045949;28;20053;-33
2021/01/01 10:56:27;;;;;;;10.23;7.88;;;16.90;99.90;;;;;;5049067;28;20029;-33
2021/01/01 10:58:52;;;;;;;;;;;17.10;99.90;;;;;;5044961;28;20585;-34
2021/01/01 11:01:23;;;;;;;8.98;6.40;;;17.30;99.90;;;;;;5048644;28;19979;-33
2021/01/01 11:03:52;;;;;;;10.85;6.35;;;17.40;99.90;;;;;;5050968;28;20021;-33
2021/01/01 11:06:19;;;;;;;14.20;7.20;;;17.50;99.90;;;;;;5042097;28;20025;-33
2021/01/01 11:08:46;;;;;;;6.03;4.43;;;17.70;99.90;;;;;;5044648;28;20390;-33
2021/01/01 11:11:19;;;;;;;4.00;2.80;;;17.80;99.90;;;;;;5042975;28;20030;-33
2021/01/01 11:13:52;;;;;;;8.48;4.80;;;17.90;99.90;;;;;;5042204;28;20479;-35
2021/01/01 12:22:56;;;;;;;12.18;6.38;;;23.30;99.90;;;;;;5047184;28;20071;-43
2021/01/01 12:25:22;;;;;;;9.77;5.25;;;22.90;99.90;;;;;;5050767;28;20454;-43
2021/01/01 12:27:55;;;;;;;7.95;5.78;;;22.20;99.90;;;;;;5049912;28;20078;-42
2021/01/01 12:30:21;;;;;;;19.42;13.70;;;21.80;99.90;;;;;;5047563;28;20498;-42
2021/01/01 12:32:50;;;;;;;9.57;6.53;;;21.50;99.90;;;;;;5046894;28;20057;-42
2021/01/01 12:35:16;;;;;;;7.35;4.50;;;21.30;99.90;;;;;;5048552;28;20106;-43
2021/01/01 12:37:42;;;;;;;8.40;5.78;;;21.20;99.90;;;;;;5044005;28;20028;-42
2021/01/01 12:40:09;;;;;;;9.35;5.43;;;21.20;99.90;;;;;;5039886;28;20100;-42
2021/01/01 12:42:36;;;;;;;8.45;5.50;;;21.20;99.90;;;;;;5050610;28;20021;-42
2021/01/01 12:45:04;;;;;;;7.22;4.78;;;21.10;99.90;;;;;;5048387;28;20025;-42
2021/01/01 12:47:32;;;;;;;11.05;5.20;;;21.20;99.90;;;;;;5053084;28;20112;-43
2021/01/01 12:49:58;;;;;;;6.95;4.47;;;21.20;99.90;;;;;;5042808;28;20390;-43
2021/01/01 12:52:25;;;;;;;23.60;18.05;;;21.20;99.90;;;;;;5045097;28;20025;-43
2021/01/01 12:54:50;;;;;;;23.27;17.25;;;21.10;99.90;;;;;;5045123;28;20029;-41
2021/01/01 12:57:16;;;;;;;20.67;13.45;;;21.20;99.90;;;;;;5043750;28;20024;-42
2021/01/01 12:59:42;;;;;;;17.98;12.38;;;21.20;99.90;;;;;;5044871;28;20022;-42
2021/01/01 13:02:08;;;;;;;18.23;11.60;;;21.30;99.90;;;;;;5041153;28;20029;-42
2021/01/01 13:04:34;;;;;;;14.60;12.20;;;21.40;99.90;;;;;;5047320;28;20032;-43
2021/01/01 13:07:00;;;;;;;15.50;11.43;;;21.40;99.90;;;;;;5044115;28;20031;-42
2021/01/01 13:09:26;;;;;;;13.30;10.65;;;21.50;99.90;;;;;;5047938;28;20823;-42
2021/01/01 13:11:52;;;;;;;11.70;9.45;;;21.70;99.90;;;;;;5048650;28;20115;-42
2021/01/01 13:14:18;;;;;;;16.33;12.50;;;21.70;99.90;;;;;;5042917;28;20049;-42
2021/01/01 13:16:45;;;;;;;12.98;10.10;;;21.70;99.90;;;;;;5041876;28;20051;-42
2021/01/01 13:19:11;;;;;;;12.25;9.15;;;21.80;99.90;;;;;;5044358;28;20021;-43
2021/01/01 13:21:44;;;;;;;16.35;10.82;;;21.80;99.90;;;;;;5041522;28;20021;-43
2021/01/01 13:24:10;;;;;;;10.07;7.80;;;21.80;99.90;;;;;;5041225;28;20099;-42
2021/01/01 13:26:36;;;;;;;13.35;9.15;;;21.90;99.90;;;;;;5042878;28;20040;-44
2021/01/01 13:29:03;;;;;;;14.55;8.45;;;21.90;99.90;;;;;;5044427;28;20032;-42
2021/01/01 13:31:34;;;;;;;9.77;7.85;;;21.90;99.90;;;;;;5046365;28;20538;-42
2021/01/01 13:33:59;;;;;;;9.30;7.90;;;21.90;99.90;;;;;;5043795;28;20110;-42
2021/01/01 13:36:25;;;;;;;9.88;7.22;;;22.00;99.90;;;;;;5044465;28;20490;-35
2021/01/01 13:38:51;;;;;;;9.32;7.80;;;22.00;99.90;;;;;;5039957;28;20065;-35
2021/01/01 13:41:17;;;;;;;9.70;8.13;;;22.00;99.90;;;;;;5039293;28;20020;-35
2021/01/01 13:43:44;;;;;;;10.25;6.65;;;22.00;99.90;;;;;;5045778;28;20102;-34
2021/01/01 13:46:19;;;;;;;8.13;6.30;;;22.10;99.90;;;;;;5047063;28;20056;-34
2021/01/01 13:48:45;;;;;;;9.13;7.22;;;22.10;99.90;;;;;;5043906;28;20474;-35
2021/01/01 13:51:11;;;;;;;8.43;6.43;;;22.10;99.90;;;;;;5043203;28;20036;-35